sensor_id;sensor_type;location;lat;lon;timestamp;P1;durP1;ratioP1;P2;durP2;ratioP2
37791;SDS011;29527;55.766;37.570;2023-09-19T00:00:19;20.42;;;11.85;;
37791;SDS011;29527;55.766;37.570;2023-09-19T00:02:51;22.02;;;12.68;;
37791;SDS011;29527;55.766;37.570;2023-09-19T00:05:24;19.67;;;12.38;;
37791;SDS011;29527;55.766;37.570;2023-09-19T00:07:53;16.67;;;12.70;;
37791;SDS011;29527;55.766;37.570;2023-09-19T00:10:22;19.02;;;12.63;;
37791;SDS011;29527;55.766;37.570;2023-09-19T00:12:53;18.13;;;12.63;;
37791;SDS011;29527;55.766;37.570;2023-09-19T00:15:21;17.65;;;12.32;;
37791;SDS011;29527;55.766;37.570;2023-09-19T00:17:47;17.85;;;12.27;;
37791;SDS011;29527;55.766;37.570;2023-09-19T00:20:13;20.98;;;12.35;;
37791;SDS011;29527;55.766;37.570;2023-09-19T00:22:42;18.67;;;13.05;;
37791;SDS011;29527;55.766;37.570;2023-09-19T00:25:08;18.60;;;12.07;;
37791;SDS011;29527;55.766;37.570;2023-09-19T00:27:35;21.90;;;12.95;;
37791;SDS011;29527;55.766;37.570;2023-09-19T00:30:06;16.50;;;12.45;;
37791;SDS011;29527;55.766;37.570;2023-09-19T00:32:34;19.10;;;12.70;;
37791;SDS011;29527;55.766;37.570;2023-09-19T00:34:59;21.00;;;14.10;;
37791;SDS011;29527;55.766;37.570;2023-09-19T00:37:25;19.50;;;14.60;;
37791;SDS011;29527;55.766;37.570;2023-09-19T00:39:50;20.30;;;14.25;;
37791;SDS011;29527;55.766;37.570;2023-09-19T00:42:18;23.65;;;14.52;;
37791;SDS011;29527;55.766;37.570;2023-09-19T00:44:46;20.58;;;14.02;;
37791;SDS011;29527;55.766;37.570;2023-09-19T00:47:12;21.35;;;14.10;;
37791;SDS011;29527;55.766;37.570;2023-09-19T00:49:45;20.80;;;13.82;;
37791;SDS011;29527;55.766;37.570;2023-09-19T00:52:14;17.55;;;13.63;;
37791;SDS011;29527;55.766;37.570;2023-09-19T00:54:41;22.40;;;14.27;;
37791;SDS011;29527;55.766;37.570;2023-09-19T00:57:06;20.23;;;13.82;;
37791;SDS011;29527;55.766;37.570;2023-09-19T00:59:33;19.48;;;13.57;;
37791;SDS011;29527;55.766;37.570;2023-09-19T01:02:01;18.30;;;13.77;;
37791;SDS011;29527;55.766;37.570;2023-09-19T01:04:29;17.30;;;12.80;;
37791;SDS011;29527;55.766;37.570;2023-09-19T01:06:55;19.77;;;13.57;;
37791;SDS011;29527;55.766;37.570;2023-09-19T01:09:23;21.85;;;14.35;;
37791;SDS011;29527;55.766;37.570;2023-09-19T01:11:49;21.27;;;13.70;;
37791;SDS011;29527;55.766;37.570;2023-09-19T01:16:56;18.57;;;13.77;;
37791;SDS011;29527;55.766;37.570;2023-09-19T01:30:53;23.15;;;15.10;;
37791;SDS011;29527;55.766;37.570;2023-09-19T01:33:24;22.90;;;15.50;;
37791;SDS011;29527;55.766;37.570;2023-09-19T01:35:51;20.60;;;14.73;;
37791;SDS011;29527;55.766;37.570;2023-09-19T01:38:18;17.58;;;15.05;;
37791;SDS011;29527;55.766;37.570;2023-09-19T01:40:48;18.50;;;14.88;;
37791;SDS011;29527;55.766;37.570;2023-09-19T01:46:05;21.00;;;14.45;;
37791;SDS011;29527;55.766;37.570;2023-09-19T01:49:00;24.63;;;15.50;;
37791;SDS011;29527;55.766;37.570;2023-09-19T01:54:27;20.45;;;15.15;;
37791;SDS011;29527;55.766;37.570;2023-09-19T01:59:36;20.77;;;16.23;;
37791;SDS011;29527;55.766;37.570;2023-09-19T02:02:08;22.85;;;16.13;;
37791;SDS011;29527;55.766;37.570;2023-09-19T02:04:34;19.95;;;16.25;;
37791;SDS011;29527;55.766;37.570;2023-09-19T02:07:00;20.60;;;16.02;;
37791;SDS011;29527;55.766;37.570;2023-09-19T02:09:26;21.38;;;15.23;;
37791;SDS011;29527;55.766;37.570;2023-09-19T02:11:52;25.75;;;15.80;;
37791;SDS011;29527;55.766;37.570;2023-09-19T02:14:18;22.23;;;15.70;;
37791;SDS011;29527;55.766;37.570;2023-09-19T02:16:45;21.05;;;16.60;;
37791;SDS011;29527;55.766;37.570;2023-09-19T02:19:11;21.75;;;16.50;;
37791;SDS011;29527;55.766;37.570;2023-09-19T02:21:36;22.35;;;16.25;;
37791;SDS011;29527;55.766;37.570;2023-09-19T02:24:04;24.70;;;16.38;;
37791;SDS011;29527;55.766;37.570;2023-09-19T02:26:30;21.00;;;15.73;;
37791;SDS011;29527;55.766;37.570;2023-09-19T02:28:56;21.25;;;16.08;;
37791;SDS011;29527;55.766;37.570;2023-09-19T02:31:21;23.63;;;16.05;;
37791;SDS011;29527;55.766;37.570;2023-09-19T02:33:47;19.77;;;14.23;;
37791;SDS011;29527;55.766;37.570;2023-09-19T02:36:12;20.77;;;15.93;;
37791;SDS011;29527;55.766;37.570;2023-09-19T02:38:42;20.42;;;15.73;;
37791;SDS011;29527;55.766;37.570;2023-09-19T02:41:07;19.80;;;14.93;;
37791;SDS011;29527;55.766;37.570;2023-09-19T02:43:33;20.70;;;15.63;;
37791;SDS011;29527;55.766;37.570;2023-09-19T02:45:59;23.67;;;15.50;;
37791;SDS011;29527;55.766;37.570;2023-09-19T02:48:24;22.02;;;14.82;;
37791;SDS011;29527;55.766;37.570;2023-09-19T02:50:50;17.83;;;14.30;;
37791;SDS011;29527;55.766;37.570;2023-09-19T02:53:16;21.60;;;15.07;;
37791;SDS011;29527;55.766;37.570;2023-09-19T02:55:42;21.95;;;15.02;;
37791;SDS011;29527;55.766;37.570;2023-09-19T02:58:08;21.55;;;15.02;;
37791;SDS011;29527;55.766;37.570;2023-09-19T03:00:36;19.27;;;15.25;;
37791;SDS011;29527;55.766;37.570;2023-09-19T03:03:01;24.02;;;16.05;;
37791;SDS011;29527;55.766;37.570;2023-09-19T03:05:27;19.10;;;15.30;;
37791;SDS011;29527;55.766;37.570;2023-09-19T03:07:56;21.73;;;15.38;;
37791;SDS011;29527;55.766;37.570;2023-09-19T03:10:22;25.10;;;15.55;;
37791;SDS011;29527;55.766;37.570;2023-09-19T03:12:48;21.98;;;15.85;;
37791;SDS011;29527;55.766;37.570;2023-09-19T03:15:14;23.02;;;15.90;;
37791;SDS011;29527;55.766;37.570;2023-09-19T03:17:46;21.85;;;16.45;;
37791;SDS011;29527;55.766;37.570;2023-09-19T03:20:13;24.23;;;15.90;;
37791;SDS011;29527;55.766;37.570;2023-09-19T03:22:39;27.30;;;16.70;;
37791;SDS011;29527;55.766;37.570;2023-09-19T03:25:05;22.52;;;16.60;;
37791;SDS011;29527;55.766;37.570;2023-09-19T03:27:36;22.77;;;15.95;;
37791;SDS011;29527;55.766;37.570;2023-09-19T03:30:02;23.48;;;15.80;;
37791;SDS011;29527;55.766;37.570;2023-09-19T03:32:32;21.17;;;15.40;;
37791;SDS011;29527;55.766;37.570;2023-09-19T03:34:57;23.92;;;15.38;;
37791;SDS011;29527;55.766;37.570;2023-09-19T03:37:23;21.85;;;16.73;;
37791;SDS011;29527;55.766;37.570;2023-09-19T03:39:48;22.48;;;15.00;;
37791;SDS011;29527;55.766;37.570;2023-09-19T03:42:14;22.50;;;15.95;;
37791;SDS011;29527;55.766;37.570;2023-09-19T03:44:39;21.10;;;15.43;;
37791;SDS011;29527;55.766;37.570;2023-09-19T03:47:05;24.05;;;16.10;;
37791;SDS011;29527;55.766;37.570;2023-09-19T03:49:32;20.40;;;15.20;;
37791;SDS011;29527;55.766;37.570;2023-09-19T03:51:57;26.25;;;16.40;;
37791;SDS011;29527;55.766;37.570;2023-09-19T03:54:23;20.88;;;15.75;;
37791;SDS011;29527;55.766;37.570;2023-09-19T03:56:48;22.35;;;16.05;;
37791;SDS011;29527;55.766;37.570;2023-09-19T03:59:13;22.67;;;16.67;;
37791;SDS011;29527;55.766;37.570;2023-09-19T04:01:39;25.38;;;17.70;;
37791;SDS011;29527;55.766;37.570;2023-09-19T04:04:06;24.70;;;17.80;;
37791;SDS011;29527;55.766;37.570;2023-09-19T04:06:35;26.27;;;19.13;;
37791;SDS011;29527;55.766;37.570;2023-09-19T04:09:04;27.65;;;19.83;;
37791;SDS011;29527;55.766;37.570;2023-09-19T04:11:32;25.85;;;18.73;;
37791;SDS011;29527;55.766;37.570;2023-09-19T04:13:58;25.85;;;20.27;;
37791;SDS011;29527;55.766;37.570;2023-09-19T04:16:24;27.23;;;19.80;;
37791;SDS011;29527;55.766;37.570;2023-09-19T04:18:50;30.50;;;22.10;;
37791;SDS011;29527;55.766;37.570;2023-09-19T04:21:15;31.52;;;21.50;;
37791;SDS011;29527;55.766;37.570;2023-09-19T04:23:41;29.75;;;21.40;;
37791;SDS011;29527;55.766;37.570;2023-09-19T04:26:07;31.48;;;23.55;;
37791;SDS011;29527;55.766;37.570;2023-09-19T04:28:33;36.10;;;22.95;;
37791;SDS011;29527;55.766;37.570;2023-09-19T04:31:00;31.50;;;22.38;;
37791;SDS011;29527;55.766;37.570;2023-09-19T04:33:25;36.25;;;23.75;;
37791;SDS011;29527;55.766;37.570;2023-09-19T04:35:54;40.42;;;22.90;;
37791;SDS011;29527;55.766;37.570;2023-09-19T04:38:21;33.95;;;22.95;;
37791;SDS011;29527;55.766;37.570;2023-09-19T04:40:47;30.10;;;21.30;;
37791;SDS011;29527;55.766;37.570;2023-09-19T04:43:12;31.38;;;20.95;;
37791;SDS011;29527;55.766;37.570;2023-09-19T04:45:39;27.88;;;20.80;;
37791;SDS011;29527;55.766;37.570;2023-09-19T04:48:07;34.55;;;21.05;;
37791;SDS011;29527;55.766;37.570;2023-09-19T04:50:34;28.38;;;21.00;;
37791;SDS011;29527;55.766;37.570;2023-09-19T04:53:00;26.80;;;19.33;;
37791;SDS011;29527;55.766;37.570;2023-09-19T04:55:26;29.13;;;19.02;;
37791;SDS011;29527;55.766;37.570;2023-09-19T04:57:52;28.20;;;18.33;;
37791;SDS011;29527;55.766;37.570;2023-09-19T05:00:18;24.80;;;17.60;;
37791;SDS011;29527;55.766;37.570;2023-09-19T05:02:49;30.27;;;18.00;;
37791;SDS011;29527;55.766;37.570;2023-09-19T05:05:18;24.67;;;17.35;;
37791;SDS011;29527;55.766;37.570;2023-09-19T05:07:45;23.20;;;17.17;;
37791;SDS011;29527;55.766;37.570;2023-09-19T05:10:11;21.70;;;16.75;;
37791;SDS011;29527;55.766;37.570;2023-09-19T05:12:38;25.55;;;16.77;;
37791;SDS011;29527;55.766;37.570;2023-09-19T05:15:04;25.52;;;16.10;;
37791;SDS011;29527;55.766;37.570;2023-09-19T05:17:32;24.45;;;16.20;;
37791;SDS011;29527;55.766;37.570;2023-09-19T05:19:59;24.20;;;15.75;;
37791;SDS011;29527;55.766;37.570;2023-09-19T05:22:30;23.95;;;16.30;;
37791;SDS011;29527;55.766;37.570;2023-09-19T05:24:57;23.30;;;16.00;;
37791;SDS011;29527;55.766;37.570;2023-09-19T05:27:23;27.35;;;16.20;;
37791;SDS011;29527;55.766;37.570;2023-09-19T05:29:48;28.73;;;15.63;;
37791;SDS011;29527;55.766;37.570;2023-09-19T05:32:15;27.25;;;15.77;;
37791;SDS011;29527;55.766;37.570;2023-09-19T05:34:42;26.65;;;16.50;;
37791;SDS011;29527;55.766;37.570;2023-09-19T05:37:07;27.25;;;15.65;;
37791;SDS011;29527;55.766;37.570;2023-09-19T05:39:33;24.80;;;15.48;;
37791;SDS011;29527;55.766;37.570;2023-09-19T05:41:59;21.55;;;14.60;;
37791;SDS011;29527;55.766;37.570;2023-09-19T05:44:25;23.25;;;14.43;;
37791;SDS011;29527;55.766;37.570;2023-09-19T05:46:51;23.90;;;16.00;;
37791;SDS011;29527;55.766;37.570;2023-09-19T05:49:17;21.67;;;14.48;;
37791;SDS011;29527;55.766;37.570;2023-09-19T05:51:42;21.77;;;14.52;;
37791;SDS011;29527;55.766;37.570;2023-09-19T05:54:08;21.90;;;13.30;;
37791;SDS011;29527;55.766;37.570;2023-09-19T05:56:34;25.80;;;13.90;;
37791;SDS011;29527;55.766;37.570;2023-09-19T05:58:59;19.63;;;12.32;;
37791;SDS011;29527;55.766;37.570;2023-09-19T06:01:25;19.70;;;13.18;;
37791;SDS011;29527;55.766;37.570;2023-09-19T06:03:51;19.25;;;11.73;;
37791;SDS011;29527;55.766;37.570;2023-09-19T06:06:18;24.85;;;12.93;;
37791;SDS011;29527;55.766;37.570;2023-09-19T06:08:44;18.10;;;12.20;;
37791;SDS011;29527;55.766;37.570;2023-09-19T06:11:09;17.92;;;11.52;;
37791;SDS011;29527;55.766;37.570;2023-09-19T06:13:36;18.92;;;11.93;;
37791;SDS011;29527;55.766;37.570;2023-09-19T06:16:04;25.58;;;11.65;;
37791;SDS011;29527;55.766;37.570;2023-09-19T06:18:33;17.80;;;11.32;;
37791;SDS011;29527;55.766;37.570;2023-09-19T06:20:59;17.27;;;11.07;;
37791;SDS011;29527;55.766;37.570;2023-09-19T06:23:25;16.13;;;10.75;;
37791;SDS011;29527;55.766;37.570;2023-09-19T06:25:54;17.75;;;11.40;;
37791;SDS011;29527;55.766;37.570;2023-09-19T06:28:20;12.90;;;10.68;;
37791;SDS011;29527;55.766;37.570;2023-09-19T06:30:50;19.13;;;11.57;;
37791;SDS011;29527;55.766;37.570;2023-09-19T06:33:15;14.93;;;10.40;;
37791;SDS011;29527;55.766;37.570;2023-09-19T06:35:42;17.23;;;11.07;;
37791;SDS011;29527;55.766;37.570;2023-09-19T06:38:10;15.75;;;10.43;;
37791;SDS011;29527;55.766;37.570;2023-09-19T06:40:38;15.07;;;10.00;;
37791;SDS011;29527;55.766;37.570;2023-09-19T06:43:05;15.27;;;10.45;;
37791;SDS011;29527;55.766;37.570;2023-09-19T06:45:30;13.90;;;10.35;;
37791;SDS011;29527;55.766;37.570;2023-09-19T06:47:57;14.20;;;10.27;;
37791;SDS011;29527;55.766;37.570;2023-09-19T06:50:23;12.75;;;10.90;;
37791;SDS011;29527;55.766;37.570;2023-09-19T06:52:49;16.00;;;10.93;;
37791;SDS011;29527;55.766;37.570;2023-09-19T06:55:16;17.58;;;11.40;;
37791;SDS011;29527;55.766;37.570;2023-09-19T06:57:44;16.58;;;11.43;;
37791;SDS011;29527;55.766;37.570;2023-09-19T07:00:11;15.40;;;11.27;;
37791;SDS011;29527;55.766;37.570;2023-09-19T07:02:44;17.23;;;11.35;;
37791;SDS011;29527;55.766;37.570;2023-09-19T07:05:09;17.40;;;12.35;;
37791;SDS011;29527;55.766;37.570;2023-09-19T07:07:35;17.27;;;13.50;;
37791;SDS011;29527;55.766;37.570;2023-09-19T07:10:02;20.58;;;13.52;;
37791;SDS011;29527;55.766;37.570;2023-09-19T07:12:31;23.00;;;13.35;;
37791;SDS011;29527;55.766;37.570;2023-09-19T07:14:58;16.95;;;13.57;;
37791;SDS011;29527;55.766;37.570;2023-09-19T07:17:24;22.05;;;14.27;;
37791;SDS011;29527;55.766;37.570;2023-09-19T07:19:50;18.20;;;14.75;;
37791;SDS011;29527;55.766;37.570;2023-09-19T07:22:16;21.38;;;14.60;;
37791;SDS011;29527;55.766;37.570;2023-09-19T07:24:41;22.05;;;14.05;;
37791;SDS011;29527;55.766;37.570;2023-09-19T07:27:08;21.98;;;14.85;;
37791;SDS011;29527;55.766;37.570;2023-09-19T07:29:34;18.92;;;15.00;;
37791;SDS011;29527;55.766;37.570;2023-09-19T07:31:59;23.33;;;15.50;;
37791;SDS011;29527;55.766;37.570;2023-09-19T07:34:25;27.17;;;15.75;;
37791;SDS011;29527;55.766;37.570;2023-09-19T07:36:51;21.33;;;15.88;;
37791;SDS011;29527;55.766;37.570;2023-09-19T07:39:16;22.42;;;16.95;;
37791;SDS011;29527;55.766;37.570;2023-09-19T07:41:41;21.83;;;15.52;;
37791;SDS011;29527;55.766;37.570;2023-09-19T07:44:07;25.48;;;16.90;;
37791;SDS011;29527;55.766;37.570;2023-09-19T07:46:35;26.35;;;16.63;;
37791;SDS011;29527;55.766;37.570;2023-09-19T07:49:01;23.65;;;18.08;;
37791;SDS011;29527;55.766;37.570;2023-09-19T07:51:26;29.65;;;17.52;;
37791;SDS011;29527;55.766;37.570;2023-09-19T07:53:52;23.95;;;16.75;;
37791;SDS011;29527;55.766;37.570;2023-09-19T07:56:18;27.35;;;18.70;;
37791;SDS011;29527;55.766;37.570;2023-09-19T07:58:45;26.48;;;18.33;;
37791;SDS011;29527;55.766;37.570;2023-09-19T08:01:10;26.33;;;17.30;;
37791;SDS011;29527;55.766;37.570;2023-09-19T08:03:39;26.85;;;17.83;;
37791;SDS011;29527;55.766;37.570;2023-09-19T08:06:06;24.02;;;17.60;;
37791;SDS011;29527;55.766;37.570;2023-09-19T08:08:33;27.35;;;17.73;;
37791;SDS011;29527;55.766;37.570;2023-09-19T08:11:02;26.60;;;18.55;;
37791;SDS011;29527;55.766;37.570;2023-09-19T08:13:38;25.80;;;17.23;;
37791;SDS011;29527;55.766;37.570;2023-09-19T08:18:47;22.63;;;17.35;;
37791;SDS011;29527;55.766;37.570;2023-09-19T08:21:14;26.45;;;17.45;;
37791;SDS011;29527;55.766;37.570;2023-09-19T08:23:40;28.25;;;17.08;;
37791;SDS011;29527;55.766;37.570;2023-09-19T08:26:07;26.48;;;18.10;;
37791;SDS011;29527;55.766;37.570;2023-09-19T08:28:34;23.55;;;16.98;;
37791;SDS011;29527;55.766;37.570;2023-09-19T08:31:03;25.42;;;16.95;;
37791;SDS011;29527;55.766;37.570;2023-09-19T08:33:34;22.75;;;16.98;;
37791;SDS011;29527;55.766;37.570;2023-09-19T08:36:01;27.10;;;18.70;;
37791;SDS011;29527;55.766;37.570;2023-09-19T08:38:33;26.50;;;17.63;;
37791;SDS011;29527;55.766;37.570;2023-09-19T08:41:00;21.60;;;18.45;;
37791;SDS011;29527;55.766;37.570;2023-09-19T08:43:30;27.10;;;17.70;;
37791;SDS011;29527;55.766;37.570;2023-09-19T08:48:31;29.65;;;17.20;;
37791;SDS011;29527;55.766;37.570;2023-09-19T08:51:03;29.02;;;17.38;;
37791;SDS011;29527;55.766;37.570;2023-09-19T08:53:41;26.70;;;17.50;;
37791;SDS011;29527;55.766;37.570;2023-09-19T08:56:14;29.27;;;18.52;;
37791;SDS011;29527;55.766;37.570;2023-09-19T09:01:16;31.25;;;18.80;;
37791;SDS011;29527;55.766;37.570;2023-09-19T09:03:49;26.33;;;18.00;;
37791;SDS011;29527;55.766;37.570;2023-09-19T09:06:17;25.60;;;18.55;;
37791;SDS011;29527;55.766;37.570;2023-09-19T09:08:45;26.45;;;18.45;;
37791;SDS011;29527;55.766;37.570;2023-09-19T09:11:12;26.73;;;17.92;;
37791;SDS011;29527;55.766;37.570;2023-09-19T09:13:38;25.35;;;17.60;;
37791;SDS011;29527;55.766;37.570;2023-09-19T09:16:07;30.25;;;18.85;;
37791;SDS011;29527;55.766;37.570;2023-09-19T09:18:33;25.92;;;17.23;;
37791;SDS011;29527;55.766;37.570;2023-09-19T09:20:59;26.38;;;17.80;;
37791;SDS011;29527;55.766;37.570;2023-09-19T09:23:26;24.27;;;17.38;;
37791;SDS011;29527;55.766;37.570;2023-09-19T09:25:54;27.83;;;17.25;;
37791;SDS011;29527;55.766;37.570;2023-09-19T09:28:24;26.02;;;17.33;;
37791;SDS011;29527;55.766;37.570;2023-09-19T09:30:50;20.73;;;17.02;;
37791;SDS011;29527;55.766;37.570;2023-09-19T09:33:16;26.00;;;18.27;;
37791;SDS011;29527;55.766;37.570;2023-09-19T09:35:48;28.35;;;17.83;;
37791;SDS011;29527;55.766;37.570;2023-09-19T09:38:20;30.65;;;18.58;;
37791;SDS011;29527;55.766;37.570;2023-09-19T09:40:49;23.67;;;17.48;;
37791;SDS011;29527;55.766;37.570;2023-09-19T09:43:28;30.20;;;17.88;;
37791;SDS011;29527;55.766;37.570;2023-09-19T09:51:44;21.98;;;17.45;;
37791;SDS011;29527;55.766;37.570;2023-09-19T09:55:01;27.00;;;18.00;;
37791;SDS011;29527;55.766;37.570;2023-09-19T09:57:32;30.00;;;17.85;;
37791;SDS011;29527;55.766;37.570;2023-09-19T09:59:59;28.65;;;18.67;;
37791;SDS011;29527;55.766;37.570;2023-09-19T10:02:39;23.20;;;17.65;;
37791;SDS011;29527;55.766;37.570;2023-09-19T10:05:19;29.90;;;18.48;;
37791;SDS011;29527;55.766;37.570;2023-09-19T10:07:49;26.33;;;17.85;;
37791;SDS011;29527;55.766;37.570;2023-09-19T10:10:34;26.00;;;18.58;;
37791;SDS011;29527;55.766;37.570;2023-09-19T10:13:14;30.65;;;20.40;;
37791;SDS011;29527;55.766;37.570;2023-09-19T10:15:44;23.70;;;17.88;;
37791;SDS011;29527;55.766;37.570;2023-09-19T10:18:26;28.13;;;19.95;;
37791;SDS011;29527;55.766;37.570;2023-09-19T10:20:54;30.67;;;19.27;;
37791;SDS011;29527;55.766;37.570;2023-09-19T10:23:22;22.52;;;17.55;;
37791;SDS011;29527;55.766;37.570;2023-09-19T10:25:52;23.17;;;16.75;;
37791;SDS011;29527;55.766;37.570;2023-09-19T10:28:19;29.35;;;17.83;;
37791;SDS011;29527;55.766;37.570;2023-09-19T10:30:48;26.35;;;17.30;;
37791;SDS011;29527;55.766;37.570;2023-09-19T10:33:16;24.48;;;17.40;;
37791;SDS011;29527;55.766;37.570;2023-09-19T10:35:44;23.05;;;16.63;;
37791;SDS011;29527;55.766;37.570;2023-09-19T10:38:12;22.92;;;16.90;;
37791;SDS011;29527;55.766;37.570;2023-09-19T10:40:39;22.55;;;17.40;;
37791;SDS011;29527;55.766;37.570;2023-09-19T10:43:18;22.40;;;17.83;;
37791;SDS011;29527;55.766;37.570;2023-09-19T10:45:46;33.97;;;18.33;;
37791;SDS011;29527;55.766;37.570;2023-09-19T10:48:19;25.08;;;16.95;;
37791;SDS011;29527;55.766;37.570;2023-09-19T10:50:47;24.63;;;17.35;;
37791;SDS011;29527;55.766;37.570;2023-09-19T10:53:16;30.00;;;18.33;;
37791;SDS011;29527;55.766;37.570;2023-09-19T10:56:16;23.63;;;18.05;;
37791;SDS011;29527;55.766;37.570;2023-09-19T10:58:42;24.73;;;16.80;;
37791;SDS011;29527;55.766;37.570;2023-09-19T11:01:10;24.33;;;18.00;;
37791;SDS011;29527;55.766;37.570;2023-09-19T11:03:40;28.40;;;18.40;;
37791;SDS011;29527;55.766;37.570;2023-09-19T11:06:13;28.17;;;18.05;;
37791;SDS011;29527;55.766;37.570;2023-09-19T11:09:03;25.50;;;18.85;;
37791;SDS011;29527;55.766;37.570;2023-09-19T11:30:31;30.85;;;17.88;;
37791;SDS011;29527;55.766;37.570;2023-09-19T11:43:51;22.17;;;16.83;;
37791;SDS011;29527;55.766;37.570;2023-09-19T11:46:20;28.98;;;17.17;;
37791;SDS011;29527;55.766;37.570;2023-09-19T11:48:48;28.00;;;16.85;;
37791;SDS011;29527;55.766;37.570;2023-09-19T11:51:16;26.65;;;17.00;;
37791;SDS011;29527;55.766;37.570;2023-09-19T11:53:47;25.70;;;16.98;;
37791;SDS011;29527;55.766;37.570;2023-09-19T11:56:15;24.85;;;16.10;;
37791;SDS011;29527;55.766;37.570;2023-09-19T11:58:43;29.05;;;17.60;;
37791;SDS011;29527;55.766;37.570;2023-09-19T12:01:14;26.73;;;17.50;;
37791;SDS011;29527;55.766;37.570;2023-09-19T12:03:46;24.98;;;16.83;;
37791;SDS011;29527;55.766;37.570;2023-09-19T12:06:18;24.35;;;16.25;;
37791;SDS011;29527;55.766;37.570;2023-09-19T12:08:43;23.52;;;16.85;;
37791;SDS011;29527;55.766;37.570;2023-09-19T12:11:12;24.95;;;16.67;;
37791;SDS011;29527;55.766;37.570;2023-09-19T12:13:44;28.17;;;16.25;;
37791;SDS011;29527;55.766;37.570;2023-09-19T12:16:20;29.45;;;16.05;;
37791;SDS011;29527;55.766;37.570;2023-09-19T12:18:50;21.67;;;15.77;;
37791;SDS011;29527;55.766;37.570;2023-09-19T12:21:26;20.20;;;15.40;;
37791;SDS011;29527;55.766;37.570;2023-09-19T12:26:38;24.92;;;15.25;;
37791;SDS011;29527;55.766;37.570;2023-09-19T12:29:10;27.25;;;15.80;;
37791;SDS011;29527;55.766;37.570;2023-09-19T12:31:46;28.30;;;15.90;;
37791;SDS011;29527;55.766;37.570;2023-09-19T12:34:25;26.98;;;16.77;;
37791;SDS011;29527;55.766;37.570;2023-09-19T12:37:05;25.65;;;16.40;;
37791;SDS011;29527;55.766;37.570;2023-09-19T12:39:36;24.88;;;15.98;;
37791;SDS011;29527;55.766;37.570;2023-09-19T12:42:01;24.55;;;15.23;;
37791;SDS011;29527;55.766;37.570;2023-09-19T12:44:29;25.13;;;14.93;;
37791;SDS011;29527;55.766;37.570;2023-09-19T12:46:55;27.75;;;15.73;;
37791;SDS011;29527;55.766;37.570;2023-09-19T12:49:24;27.15;;;16.58;;
37791;SDS011;29527;55.766;37.570;2023-09-19T12:51:49;28.90;;;16.48;;
37791;SDS011;29527;55.766;37.570;2023-09-19T12:54:20;28.92;;;15.50;;
37791;SDS011;29527;55.766;37.570;2023-09-19T12:56:47;29.77;;;15.25;;
37791;SDS011;29527;55.766;37.570;2023-09-19T12:59:14;35.60;;;15.45;;
37791;SDS011;29527;55.766;37.570;2023-09-19T13:01:41;26.42;;;15.23;;
37791;SDS011;29527;55.766;37.570;2023-09-19T13:04:12;24.85;;;16.05;;
37791;SDS011;29527;55.766;37.570;2023-09-19T13:06:46;23.98;;;15.00;;
37791;SDS011;29527;55.766;37.570;2023-09-19T13:09:14;26.48;;;14.95;;
37791;SDS011;29527;55.766;37.570;2023-09-19T13:11:40;27.42;;;14.95;;
37791;SDS011;29527;55.766;37.570;2023-09-19T13:19:42;28.75;;;15.65;;
37791;SDS011;29527;55.766;37.570;2023-09-19T13:25:06;26.25;;;15.65;;
37791;SDS011;29527;55.766;37.570;2023-09-19T13:27:33;24.98;;;14.55;;
37791;SDS011;29527;55.766;37.570;2023-09-19T13:29:59;28.42;;;13.90;;
37791;SDS011;29527;55.766;37.570;2023-09-19T13:32:25;30.50;;;14.95;;
37791;SDS011;29527;55.766;37.570;2023-09-19T13:34:51;19.83;;;13.02;;
37791;SDS011;29527;55.766;37.570;2023-09-19T13:37:16;17.85;;;11.85;;
37791;SDS011;29527;55.766;37.570;2023-09-19T13:39:43;15.32;;;9.90;;
37791;SDS011;29527;55.766;37.570;2023-09-19T13:42:15;15.70;;;8.80;;
37791;SDS011;29527;55.766;37.570;2023-09-19T13:44:41;13.52;;;9.10;;
37791;SDS011;29527;55.766;37.570;2023-09-19T13:47:07;11.55;;;8.18;;
37791;SDS011;29527;55.766;37.570;2023-09-19T13:49:35;10.88;;;8.70;;
37791;SDS011;29527;55.766;37.570;2023-09-19T13:52:02;14.75;;;10.80;;
37791;SDS011;29527;55.766;37.570;2023-09-19T13:54:32;16.95;;;9.60;;
37791;SDS011;29527;55.766;37.570;2023-09-19T13:56:58;14.32;;;8.50;;
37791;SDS011;29527;55.766;37.570;2023-09-19T13:59:23;14.48;;;8.48;;
37791;SDS011;29527;55.766;37.570;2023-09-19T14:01:49;25.33;;;11.85;;
37791;SDS011;29527;55.766;37.570;2023-09-19T14:04:15;22.25;;;12.05;;
37791;SDS011;29527;55.766;37.570;2023-09-19T14:06:42;21.08;;;12.55;;
37791;SDS011;29527;55.766;37.570;2023-09-19T14:09:08;22.63;;;10.90;;
37791;SDS011;29527;55.766;37.570;2023-09-19T14:11:35;15.23;;;10.30;;
37791;SDS011;29527;55.766;37.570;2023-09-19T14:14:01;16.88;;;9.60;;
37791;SDS011;29527;55.766;37.570;2023-09-19T14:16:27;13.82;;;8.88;;
37791;SDS011;29527;55.766;37.570;2023-09-19T14:18:56;12.93;;;9.45;;
37791;SDS011;29527;55.766;37.570;2023-09-19T14:21:25;14.05;;;8.95;;
37791;SDS011;29527;55.766;37.570;2023-09-19T14:23:51;14.43;;;9.48;;
37791;SDS011;29527;55.766;37.570;2023-09-19T14:26:16;17.50;;;9.23;;
37791;SDS011;29527;55.766;37.570;2023-09-19T14:28:43;16.08;;;9.15;;
37791;SDS011;29527;55.766;37.570;2023-09-19T14:31:10;12.93;;;8.90;;
37791;SDS011;29527;55.766;37.570;2023-09-19T14:33:36;16.83;;;9.98;;
37791;SDS011;29527;55.766;37.570;2023-09-19T14:36:12;17.63;;;9.32;;
37791;SDS011;29527;55.766;37.570;2023-09-19T14:38:39;16.27;;;9.90;;
37791;SDS011;29527;55.766;37.570;2023-09-19T14:41:05;20.25;;;9.73;;
37791;SDS011;29527;55.766;37.570;2023-09-19T14:43:31;14.32;;;9.43;;
37791;SDS011;29527;55.766;37.570;2023-09-19T14:48:33;22.53;;;11.03;;
37791;SDS011;29527;55.766;37.570;2023-09-19T14:51:06;16.60;;;10.88;;
37791;SDS011;29527;55.766;37.570;2023-09-19T14:53:34;20.25;;;12.02;;
37791;SDS011;29527;55.766;37.570;2023-09-19T14:56:03;19.42;;;11.23;;
37791;SDS011;29527;55.766;37.570;2023-09-19T14:58:30;16.83;;;11.35;;
37791;SDS011;29527;55.766;37.570;2023-09-19T15:03:32;20.55;;;11.45;;
37791;SDS011;29527;55.766;37.570;2023-09-19T15:05:59;18.13;;;10.90;;
37791;SDS011;29527;55.766;37.570;2023-09-19T15:08:25;21.23;;;11.38;;
37791;SDS011;29527;55.766;37.570;2023-09-19T15:10:51;17.30;;;11.70;;
37791;SDS011;29527;55.766;37.570;2023-09-19T15:13:18;18.58;;;11.88;;
37791;SDS011;29527;55.766;37.570;2023-09-19T15:15:44;19.95;;;11.65;;
37791;SDS011;29527;55.766;37.570;2023-09-19T15:18:12;17.45;;;11.52;;
37791;SDS011;29527;55.766;37.570;2023-09-19T15:20:42;18.33;;;10.60;;
37791;SDS011;29527;55.766;37.570;2023-09-19T15:23:12;22.10;;;11.30;;
37791;SDS011;29527;55.766;37.570;2023-09-19T15:25:38;23.38;;;11.05;;
37791;SDS011;29527;55.766;37.570;2023-09-19T15:28:05;18.05;;;10.88;;
37791;SDS011;29527;55.766;37.570;2023-09-19T15:30:37;20.85;;;10.80;;
37791;SDS011;29527;55.766;37.570;2023-09-19T15:33:03;20.17;;;10.27;;
37791;SDS011;29527;55.766;37.570;2023-09-19T15:35:29;18.52;;;10.20;;